Time;durP1;ratioP1;P1;durP2;ratioP2;P2;SDS_P1;SDS_P2;PMS_P1;PMS_P2;Temp;Humidity;BMP_temperature;BMP_pressure;BME280_temperature;BME280_humidity;BME280_pressure;Samples;Min_cycle;Max_cycle;Signal;HPM_P1;HPM_P2
2022/07/11 00:00:48;;;;;;;1.40;1.30;;;23.20;47.50;;;;;;4882511;29;20191;-67
2022/07/11 00:03:13;;;;;;;1.30;1.20;;;23.20;47.50;;;;;;4882230;29;20180;-58
2022/07/11 00:05:39;;;;;;;1.40;1.30;;;23.20;47.50;;;;;;4887445;29;20192;-60
2022/07/11 00:08:06;;;;;;;1.30;1.20;;;23.20;47.50;;;;;;4881799;29;20198;-57
2022/07/11 00:10:32;;;;;;;1.43;1.33;;;23.20;47.50;;;;;;4884105;29;20211;-63
2022/07/11 00:12:59;;;;;;;1.47;1.37;;;23.20;47.50;;;;;;4886007;29;20930;-61
2022/07/11 00:15:24;;;;;;;1.40;1.30;;;23.20;47.50;;;;;;4884416;29;20231;-60
2022/07/11 00:17:50;;;;;;;1.50;1.40;;;23.20;47.50;;;;;;4885913;29;20482;-56
2022/07/11 00:20:16;;;;;;;1.23;1.13;;;23.20;47.50;;;;;;4883980;29;20643;-60
2022/07/11 00:22:43;;;;;;;1.63;1.30;;;23.20;47.50;;;;;;4884662;29;20443;-56
2022/07/11 00:25:08;;;;;;;1.40;1.30;;;23.20;47.50;;;;;;4884093;29;20187;-58
2022/07/11 00:27:34;;;;;;;1.30;1.20;;;23.20;47.50;;;;;;4884445;29;20451;-57
2022/07/11 00:29:59;;;;;;;1.57;1.47;;;23.20;47.50;;;;;;4885752;29;20193;-56
2022/07/11 00:32:25;;;;;;;1.47;1.37;;;23.20;47.50;;;;;;4888302;29;20191;-59
2022/07/11 00:34:51;;;;;;;1.50;1.40;;;23.20;47.50;;;;;;4886606;29;20192;-60
2022/07/11 00:37:17;;;;;;;1.50;1.40;;;23.20;47.50;;;;;;4885812;29;20606;-59
2022/07/11 00:39:42;;;;;;;1.70;1.60;;;23.20;47.50;;;;;;4885835;29;20432;-61
2022/07/11 00:42:08;;;;;;;1.40;1.30;;;23.20;47.60;;;;;;4889964;29;20292;-67
2022/07/11 00:44:36;;;;;;;1.37;1.27;;;23.20;47.50;;;;;;4886489;29;20232;-59
2022/07/11 00:47:03;;;;;;;1.40;1.30;;;23.20;47.50;;;;;;4888504;29;20502;-57
2022/07/11 00:49:29;;;;;;;1.50;1.40;;;23.20;47.50;;;;;;4883463;29;20439;-57
2022/07/11 00:51:54;;;;;;;1.40;1.30;;;23.20;48.20;;;;;;4892624;29;20788;-56
2022/07/11 00:54:22;;;;;;;1.60;1.50;;;23.20;47.50;;;;;;4885707;29;20208;-57
2022/07/11 00:56:48;;;;;;;1.40;1.30;;;23.20;47.60;;;;;;4882552;29;20221;-60
2022/07/11 00:59:16;;;;;;;1.57;1.47;;;23.20;47.50;;;;;;4878000;29;20442;-58
2022/07/11 01:01:42;;;;;;;1.33;1.23;;;23.20;47.50;;;;;;4871320;29;20188;-57
2022/07/11 01:04:07;;;;;;;1.40;1.30;;;23.20;47.50;;;;;;4884548;29;20460;-59
2022/07/11 01:06:33;;;;;;;1.50;1.40;;;23.20;47.50;;;;;;4886409;29;20199;-63
2022/07/11 01:08:58;;;;;;;1.40;1.30;;;23.20;47.50;;;;;;4885166;29;20259;-57
2022/07/11 01:11:27;;;;;;;1.20;1.20;;;23.20;47.50;;;;;;4887280;29;20176;-57
2022/07/11 01:13:52;;;;;;;1.40;1.30;;;23.20;47.50;;;;;;4886376;29;20283;-59
2022/07/11 01:16:22;;;;;;;1.30;1.20;;;23.20;47.50;;;;;;4885608;29;20566;-59
2022/07/11 01:18:53;;;;;;;1.40;1.30;;;23.20;47.50;;;;;;4885387;29;20184;-62
2022/07/11 01:21:39;;;;;;;1.90;1.80;;;23.20;47.50;;;;;;4884119;29;20958;-58
2022/07/11 01:24:07;;;;;;;1.40;1.30;;;23.20;47.50;;;;;;4888483;29;20455;-59
2022/07/11 01:26:33;;;;;;;1.30;1.20;;;23.20;47.50;;;;;;4890558;29;20933;-56
2022/07/11 01:29:13;;;;;;;1.30;1.20;;;23.20;47.50;;;;;;4885784;29;20865;-56
2022/07/11 01:31:43;;;;;;;1.50;1.40;;;23.20;47.50;;;;;;4888159;29;20435;-57
2022/07/11 01:34:10;;;;;;;1.40;1.30;;;23.20;47.50;;;;;;4883466;29;20435;-58
2022/07/11 01:36:36;;;;;;;1.40;1.30;;;23.20;47.50;;;;;;4887407;29;20479;-57
2022/07/11 01:39:02;;;;;;;1.50;1.40;;;23.20;47.50;;;;;;4881442;29;20774;-59
2022/07/11 01:41:28;;;;;;;1.50;1.37;;;23.20;47.50;;;;;;4883282;29;20185;-57
2022/07/11 01:43:53;;;;;;;1.50;1.40;;;23.20;47.50;;;;;;4887845;29;20455;-59
2022/07/11 01:46:22;;;;;;;2.50;1.50;;;23.20;47.50;;;;;;4889441;29;20799;-56
2022/07/11 01:48:48;;;;;;;1.50;1.40;;;23.20;47.50;;;;;;4885519;29;20184;-63
2022/07/11 01:51:13;;;;;;;1.70;1.60;;;23.20;47.50;;;;;;4886693;29;20448;-58
2022/07/11 01:53:39;;;;;;;1.60;1.50;;;23.20;47.50;;;;;;4888400;29;20436;-57
2022/07/11 01:56:05;;;;;;;1.40;1.30;;;23.20;47.50;;;;;;4884817;29;20263;-56
2022/07/11 01:58:31;;;;;;;1.43;1.33;;;23.20;47.50;;;;;;4887716;29;20196;-64
2022/07/11 02:00:58;;;;;;;1.40;1.30;;;23.20;47.50;;;;;;4886194;29;20463;-58
2022/07/11 02:03:24;;;;;;;1.23;1.13;;;23.20;47.50;;;;;;4883956;29;20633;-57
2022/07/11 02:05:51;;;;;;;1.53;1.43;;;23.20;47.50;;;;;;4888955;29;20455;-58
2022/07/11 02:08:17;;;;;;;1.53;1.43;;;23.20;47.50;;;;;;4886226;29;20216;-58
2022/07/11 02:10:51;;;;;;;1.33;1.23;;;23.20;47.50;;;;;;4883497;29;24267;-62
2022/07/11 02:13:19;;;;;;;1.47;1.37;;;23.20;48.20;;;;;;4886644;29;20245;-58
2022/07/11 02:15:46;;;;;;;1.53;1.43;;;23.20;47.50;;;;;;4884315;29;20483;-58
2022/07/11 02:18:13;;;;;;;1.43;1.33;;;23.20;47.50;;;;;;4885404;29;20602;-58
2022/07/11 02:20:41;;;;;;;1.30;1.20;;;23.20;47.50;;;;;;4885460;29;20431;-57
2022/07/11 02:23:07;;;;;;;1.40;1.30;;;23.20;47.50;;;;;;4884307;29;20431;-57
2022/07/11 02:25:38;;;;;;;1.60;1.50;;;23.20;47.50;;;;;;4884420;29;20450;-56
2022/07/11 02:28:08;;;;;;;1.67;1.57;;;23.20;47.50;;;;;;4880803;29;20446;-57
2022/07/11 02:30:39;;;;;;;1.60;1.50;;;23.20;47.50;;;;;;4883455;29;20857;-57
2022/07/11 02:33:07;;;;;;;1.23;1.13;;;23.20;47.50;;;;;;4882733;29;20466;-56
2022/07/11 02:35:34;;;;;;;1.40;1.30;;;23.20;47.50;;;;;;4885883;29;20478;-57
2022/07/11 02:38:01;;;;;;;1.50;1.40;;;23.20;47.50;;;;;;4881705;29;21057;-57
2022/07/11 02:40:27;;;;;;;1.60;1.50;;;23.20;47.50;;;;;;4884316;29;20434;-59
2022/07/11 02:42:53;;;;;;;1.53;1.43;;;23.20;47.50;;;;;;4884005;29;20454;-57
2022/07/11 02:45:19;;;;;;;1.40;1.30;;;23.20;47.50;;;;;;4885167;29;20196;-57
2022/07/11 02:47:45;;;;;;;1.40;1.30;;;23.20;47.50;;;;;;4885059;29;20435;-65
2022/07/11 02:50:13;;;;;;;1.33;1.23;;;23.20;47.50;;;;;;4881397;29;20659;-57
2022/07/11 02:52:40;;;;;;;1.37;1.27;;;23.20;47.50;;;;;;4884448;29;20914;-57
2022/07/11 02:55:08;;;;;;;1.50;1.40;;;23.20;47.50;;;;;;4883949;29;20450;-57
2022/07/11 02:57:36;;;;;;;1.50;1.40;;;23.20;47.50;;;;;;4880973;29;20436;-57
2022/07/11 03:00:07;;;;;;;1.50;1.40;;;23.20;47.50;;;;;;4888051;29;20441;-57
2022/07/11 03:02:33;;;;;;;1.50;1.40;;;23.20;47.60;;;;;;4888267;29;20442;-59
2022/07/11 03:04:58;;;;;;;1.40;1.30;;;23.20;47.50;;;;;;4889850;29;20503;-56
2022/07/11 03:07:28;;;;;;;1.50;1.40;;;23.20;47.50;;;;;;4888593;29;20181;-56
2022/07/11 03:09:54;;;;;;;1.50;1.40;;;23.20;47.50;;;;;;4882098;29;20227;-56
2022/07/11 03:12:21;;;;;;;1.50;1.40;;;23.20;47.50;;;;;;4886101;29;20956;-57
2022/07/11 03:14:46;;;;;;;1.30;1.20;;;23.20;47.50;;;;;;4880476;29;20482;-58
2022/07/11 03:17:12;;;;;;;1.50;1.40;;;23.20;47.50;;;;;;4885411;29;20490;-59
2022/07/11 03:19:38;;;;;;;1.63;1.53;;;23.20;47.50;;;;;;4883007;29;20192;-59
2022/07/11 03:22:04;;;;;;;1.30;1.20;;;23.10;47.40;;;;;;4883317;29;20636;-59
2022/07/11 03:24:30;;;;;;;1.60;1.50;;;23.20;47.50;;;;;;4883587;29;20228;-60
2022/07/11 03:26:56;;;;;;;1.50;1.40;;;23.20;47.50;;;;;;4889064;29;20434;-56
2022/07/11 03:29:21;;;;;;;1.47;1.37;;;23.20;47.50;;;;;;4875651;29;20236;-56
2022/07/11 03:31:47;;;;;;;1.50;1.40;;;23.20;47.50;;;;;;4886057;29;20193;-59
2022/07/11 03:34:13;;;;;;;1.40;1.30;;;23.20;47.60;;;;;;4890674;29;20316;-60
2022/07/11 03:36:38;;;;;;;1.37;1.27;;;23.20;47.50;;;;;;4889225;29;20212;-57
2022/07/11 03:39:05;;;;;;;1.40;1.30;;;23.10;47.40;;;;;;4885310;29;20229;-62
2022/07/11 03:41:30;;;;;;;1.60;1.50;;;23.10;47.50;;;;;;4890379;29;20191;-58
2022/07/11 03:43:56;;;;;;;2.03;1.40;;;23.20;47.50;;;;;;4885351;29;20444;-63
2022/07/11 03:46:22;;;;;;;1.70;1.60;;;23.20;47.50;;;;;;4888267;29;20199;-57
2022/07/11 03:48:49;;;;;;;1.80;1.70;;;23.10;47.40;;;;;;4888860;29;20244;-59
2022/07/11 03:51:16;;;;;;;1.30;1.20;;;23.20;47.50;;;;;;4889066;29;20459;-58
2022/07/11 03:53:42;;;;;;;1.40;1.30;;;23.10;47.40;;;;;;4887880;29;20853;-61
2022/07/11 03:56:08;;;;;;;1.50;1.40;;;23.20;47.50;;;;;;4887768;29;20452;-58
2022/07/11 03:58:34;;;;;;;1.50;1.40;;;23.20;47.50;;;;;;4884017;29;20705;-59
2022/07/11 04:00:59;;;;;;;1.40;1.30;;;23.10;47.40;;;;;;4887165;29;20442;-57
2022/07/11 04:03:25;;;;;;;1.30;1.20;;;23.20;47.50;;;;;;4884494;29;20258;-63
2022/07/11 04:05:51;;;;;;;1.40;1.30;;;23.20;47.50;;;;;;4896569;29;20222;-58
2022/07/11 04:08:17;;;;;;;1.50;1.40;;;23.20;47.50;;;;;;4888098;29;20469;-61
2022/07/11 04:10:43;;;;;;;1.40;1.30;;;23.20;47.50;;;;;;4886807;29;20192;-58
2022/07/11 04:13:09;;;;;;;1.40;1.30;;;23.10;47.30;;;;;;4887425;29;20208;-57
2022/07/11 04:15:34;;;;;;;1.40;1.30;;;23.20;47.50;;;;;;4887929;29;20323;-57
2022/07/11 04:18:00;;;;;;;1.80;1.70;;;23.20;47.50;;;;;;4885742;29;21062;-56
2022/07/11 04:20:26;;;;;;;1.50;1.40;;;23.10;47.40;;;;;;4885272;29;20716;-58
2022/07/11 04:22:52;;;;;;;1.47;1.37;;;23.10;47.40;;;;;;4888212;29;20427;-58
2022/07/11 04:25:17;;;;;;;1.53;1.43;;;23.10;47.40;;;;;;4888461;29;20450;-56
2022/07/11 04:27:43;;;;;;;1.70;1.60;;;23.10;47.40;;;;;;4886816;29;20221;-63
2022/07/11 04:30:09;;;;;;;1.50;1.40;;;23.20;47.50;;;;;;4882424;29;20184;-58
2022/07/11 04:32:35;;;;;;;1.80;1.70;;;23.20;47.50;;;;;;4886662;29;20217;-57
2022/07/11 04:35:01;;;;;;;1.50;1.40;;;23.10;47.40;;;;;;4884750;29;20458;-57
2022/07/11 04:37:27;;;;;;;1.60;1.50;;;23.10;47.40;;;;;;4885021;29;20949;-60
2022/07/11 04:39:52;;;;;;;1.43;1.33;;;23.10;47.40;;;;;;4887658;29;20458;-58
2022/07/11 04:42:18;;;;;;;1.43;1.33;;;23.10;47.40;;;;;;4881798;29;20184;-56
2022/07/11 04:44:44;;;;;;;1.50;1.40;;;23.10;47.40;;;;;;4888805;29;20184;-64
2022/07/11 04:47:10;;;;;;;1.30;1.20;;;23.10;47.30;;;;;;4888508;29;20192;-65
2022/07/11 04:49:36;;;;;;;1.53;1.43;;;23.20;47.50;;;;;;4889616;29;20189;-65
2022/07/11 04:52:01;;;;;;;1.50;1.40;;;23.10;47.40;;;;;;4888132;29;20510;-60
2022/07/11 04:54:27;;;;;;;1.50;1.40;;;23.10;47.40;;;;;;4885995;29;20181;-59
2022/07/11 04:56:53;;;;;;;1.47;1.37;;;23.10;47.40;;;;;;4885113;29;20223;-60
2022/07/11 04:59:18;;;;;;;1.50;1.40;;;23.10;47.40;;;;;;4889529;29;20183;-57
2022/07/11 05:01:44;;;;;;;1.20;1.10;;;23.10;47.40;;;;;;4885765;29;20195;-57
2022/07/11 05:04:10;;;;;;;1.60;1.50;;;23.10;47.40;;;;;;4885208;29;20187;-60
2022/07/11 05:06:35;;;;;;;1.30;1.20;;;23.10;47.50;;;;;;4885948;29;20275;-57
2022/07/11 05:09:02;;;;;;;1.67;1.57;;;23.10;47.40;;;;;;4886465;29;20526;-67
2022/07/11 05:11:28;;;;;;;1.40;1.30;;;23.10;47.40;;;;;;4884625;29;20731;-59
2022/07/11 05:13:53;;;;;;;1.20;1.10;;;23.10;47.40;;;;;;4886655;29;20445;-58
2022/07/11 05:16:19;;;;;;;1.37;1.27;;;23.10;47.40;;;;;;4886446;29;20487;-57
2022/07/11 05:18:45;;;;;;;1.50;1.40;;;23.20;47.50;;;;;;4883926;29;20192;-58
2022/07/11 05:21:10;;;;;;;1.50;1.40;;;23.10;47.40;;;;;;4883732;29;20188;-59
2022/07/11 05:23:36;;;;;;;1.43;1.33;;;23.10;47.30;;;;;;4885034;29;20200;-59
2022/07/11 05:26:04;;;;;;;1.40;1.30;;;23.10;47.30;;;;;;4888089;29;20195;-59
2022/07/11 05:28:30;;;;;;;1.40;1.30;;;23.10;47.30;;;;;;4885620;29;20200;-63
2022/07/11 05:30:55;;;;;;;1.30;1.20;;;23.10;47.30;;;;;;4886513;29;20458;-63
2022/07/11 05:33:21;;;;;;;1.50;1.37;;;23.10;47.40;;;;;;4884603;29;20519;-60
2022/07/11 05:35:46;;;;;;;1.50;1.40;;;23.10;47.30;;;;;;4882240;29;20228;-58
2022/07/11 05:38:12;;;;;;;1.30;1.20;;;23.10;47.40;;;;;;4882800;29;20199;-58
2022/07/11 05:40:38;;;;;;;1.47;1.37;;;23.10;47.40;;;;;;4884228;29;20184;-58
2022/07/11 05:43:04;;;;;;;1.40;1.30;;;23.10;47.40;;;;;;4885074;29;20446;-60
2022/07/11 05:45:29;;;;;;;1.30;1.20;;;23.10;47.40;;;;;;4888243;29;20195;-63
2022/07/11 05:47:55;;;;;;;1.40;1.30;;;23.10;47.40;;;;;;4886398;29;20188;-57
2022/07/11 05:50:21;;;;;;;1.30;1.20;;;23.10;47.30;;;;;;4881842;29;20188;-61
2022/07/11 05:52:47;;;;;;;1.40;1.30;;;23.10;47.30;;;;;;4881368;29;20439;-62
2022/07/11 05:55:12;;;;;;;1.50;1.40;;;23.10;47.30;;;;;;4883637;29;20191;-57
2022/07/11 05:57:38;;;;;;;1.20;1.10;;;23.10;47.40;;;;;;4886632;29;20184;-64
2022/07/11 06:00:04;;;;;;;1.30;1.20;;;23.10;47.40;;;;;;4886786;29;20666;-56
2022/07/11 06:02:29;;;;;;;1.70;1.60;;;23.10;47.40;;;;;;4881033;29;20805;-62
2022/07/11 06:04:55;;;;;;;1.43;1.33;;;23.10;47.40;;;;;;4887663;29;20198;-59
2022/07/11 06:10:05;;;;;;;1.47;1.37;;;23.10;47.30;;;;;;4884082;29;20195;-58
2022/07/11 06:12:31;;;;;;;1.63;1.53;;;23.10;47.40;;;;;;4883779;29;20458;-58
2022/07/11 06:14:57;;;;;;;1.50;1.40;;;23.10;47.40;;;;;;4886284;29;20184;-57
2022/07/11 06:17:28;;;;;;;1.30;1.20;;;23.10;47.40;;;;;;4890735;29;20260;-58
2022/07/11 06:19:53;;;;;;;1.30;1.20;;;23.10;47.30;;;;;;4885252;29;20191;-57
2022/07/11 06:22:19;;;;;;;1.30;1.20;;;23.10;47.30;;;;;;4887599;29;20817;-56
2022/07/11 06:24:44;;;;;;;1.60;1.50;;;23.10;47.40;;;;;;4880978;29;20193;-59
2022/07/11 06:27:11;;;;;;;1.57;1.47;;;23.10;47.40;;;;;;4883716;29;20210;-61
2022/07/11 06:29:36;;;;;;;1.40;1.30;;;23.10;47.40;;;;;;4885138;29;20191;-60
2022/07/11 06:32:02;;;;;;;1.50;1.40;;;23.10;47.40;;;;;;4881640;29;20807;-57
2022/07/11 06:34:28;;;;;;;1.77;1.67;;;23.20;47.50;;;;;;4886547;29;20199;-56
2022/07/11 06:36:53;;;;;;;1.50;1.40;;;23.10;47.30;;;;;;4883420;29;20664;-57
2022/07/11 06:39:19;;;;;;;1.30;1.20;;;23.10;47.40;;;;;;4884768;29;20224;-58
2022/07/11 06:41:44;;;;;;;1.40;1.30;;;23.10;47.40;;;;;;4883539;29;20217;-58
2022/07/11 06:44:10;;;;;;;1.37;1.27;;;23.10;47.40;;;;;;4885834;29;20188;-59
2022/07/11 06:46:35;;;;;;;1.50;1.40;;;23.10;47.40;;;;;;4886359;29;20215;-58
2022/07/11 06:49:02;;;;;;;1.40;1.30;;;23.10;47.40;;;;;;4883703;29;20293;-57
2022/07/11 06:51:28;;;;;;;1.30;1.20;;;23.10;47.40;;;;;;4885538;29;20574;-57
2022/07/11 06:53:53;;;;;;;1.27;1.20;;;23.10;47.40;;;;;;4890378;29;20200;-57
2022/07/11 06:56:19;;;;;;;1.23;1.13;;;23.10;47.40;;;;;;4884005;29;20216;-57
2022/07/11 06:58:44;;;;;;;1.40;1.30;;;23.10;47.30;;;;;;4888475;29;20195;-59
2022/07/11 07:01:10;;;;;;;1.50;1.40;;;23.10;47.40;;;;;;4888250;29;20193;-62
2022/07/11 07:03:35;;;;;;;1.30;1.20;;;23.10;47.30;;;;;;4884696;29;20188;-58
2022/07/11 07:06:02;;;;;;;1.40;1.30;;;23.10;47.30;;;;;;4889137;29;20259;-59
2022/07/11 07:08:29;;;;;;;1.53;1.43;;;23.10;47.30;;;;;;4888180;29;20826;-57
2022/07/11 07:10:56;;;;;;;1.30;1.20;;;23.10;47.40;;;;;;4889958;29;20443;-66
2022/07/11 07:13:25;;;;;;;1.40;1.30;;;23.10;48.20;;;;;;4887944;29;20471;-58
2022/07/11 07:15:52;;;;;;;1.30;1.20;;;23.10;47.40;;;;;;4888517;29;20489;-57
2022/07/11 07:18:17;;;;;;;1.30;1.20;;;23.10;47.40;;;;;;4886891;29;20479;-57
2022/07/11 07:20:47;;;;;;;1.30;1.20;;;23.10;47.40;;;;;;4887954;29;20478;-62
2022/07/11 07:23:16;;;;;;;1.30;1.20;;;23.10;47.50;;;;;;4886732;29;20234;-58
2022/07/11 07:25:43;;;;;;;1.57;1.47;;;23.10;47.40;;;;;;4889324;29;20988;-58
2022/07/11 07:28:09;;;;;;;1.30;1.20;;;23.10;47.40;;;;;;4886392;29;20515;-57
2022/07/11 07:30:35;;;;;;;1.30;1.20;;;23.10;47.40;;;;;;4886143;29;20525;-56
2022/07/11 07:33:01;;;;;;;1.30;1.20;;;23.10;47.40;;;;;;4885823;29;20354;-60
2022/07/11 07:35:28;;;;;;;1.13;1.03;;;23.10;47.40;;;;;;4886133;29;20598;-59
2022/07/11 07:37:53;;;;;;;1.20;1.10;;;23.10;47.40;;;;;;4889501;29;20196;-57
2022/07/11 07:40:19;;;;;;;1.00;1.00;;;23.10;47.40;;;;;;4890917;29;20494;-59
2022/07/11 07:42:45;;;;;;;1.80;1.70;;;23.10;47.30;;;;;;4885779;29;20189;-57
2022/07/11 07:45:11;;;;;;;1.30;1.20;;;23.10;48.10;;;;;;4883306;29;20222;-57
2022/07/11 07:47:37;;;;;;;1.50;1.40;;;23.10;47.30;;;;;;4887125;29;20660;-58
2022/07/11 07:50:04;;;;;;;1.40;1.30;;;23.10;47.40;;;;;;4886000;29;20447;-59
2022/07/11 07:52:30;;;;;;;1.27;1.17;;;23.10;47.40;;;;;;4889967;29;20243;-62
2022/07/11 07:54:55;;;;;;;1.30;1.20;;;23.10;47.40;;;;;;4889150;29;20435;-56
2022/07/11 07:57:21;;;;;;;1.50;1.40;;;23.10;47.30;;;;;;4884537;29;20595;-57
2022/07/11 07:59:46;;;;;;;1.37;1.27;;;23.10;47.30;;;;;;4884871;29;20263;-60
2022/07/11 08:02:12;;;;;;;1.30;1.20;;;23.10;47.40;;;;;;4886781;29;21154;-57
2022/07/11 08:04:38;;;;;;;1.40;1.30;;;23.10;47.50;;;;;;4890042;29;20669;-57
2022/07/11 08:07:03;;;;;;;1.30;1.20;;;23.10;47.40;;;;;;4890212;29;20192;-57
2022/07/11 08:09:29;;;;;;;1.30;1.20;;;23.10;47.40;;;;;;4886201;29;20184;-61
2022/07/11 08:11:55;;;;;;;1.37;1.27;;;23.10;47.40;;;;;;4889690;29;20291;-57
2022/07/11 08:14:21;;;;;;;1.50;1.40;;;23.10;47.30;;;;;;4888681;29;20183;-59
2022/07/11 08:16:47;;;;;;;1.60;1.50;;;23.10;47.40;;;;;;4874266;29;20239;-56
2022/07/11 08:19:14;;;;;;;1.20;1.10;;;23.10;47.30;;;;;;4883577;29;20483;-60
2022/07/11 08:21:39;;;;;;;1.20;1.10;;;23.10;47.40;;;;;;4887068;29;20443;-60
2022/07/11 08:24:05;;;;;;;1.60;1.50;;;23.10;47.30;;;;;;4887641;29;20442;-56
2022/07/11 08:26:32;;;;;;;1.40;1.30;;;23.10;47.40;;;;;;4888772;29;20241;-63
2022/07/11 08:28:57;;;;;;;1.20;1.10;;;23.10;47.30;;;;;;4886449;29;20184;-58
2022/07/11 08:31:24;;;;;;;1.30;1.20;;;23.10;47.30;;;;;;4884916;29;20448;-58
2022/07/11 08:33:50;;;;;;;1.43;1.33;;;23.10;47.30;;;;;;4886505;29;20199;-59
2022/07/11 08:36:17;;;;;;;1.60;1.50;;;23.10;47.40;;;;;;4889828;29;20458;-68
2022/07/11 08:38:46;;;;;;;1.30;1.20;;;23.10;47.30;;;;;;4885554;29;20439;-57
2022/07/11 08:41:13;;;;;;;1.33;1.23;;;23.10;47.40;;;;;;4885436;29;20431;-58
2022/07/11 08:43:40;;;;;;;1.40;1.30;;;23.10;47.30;;;;;;4885366;29;20522;-60
2022/07/11 08:46:08;;;;;;;1.17;1.07;;;23.10;47.40;;;;;;4885376;29;20446;-61
2022/07/11 08:48:34;;;;;;;1.30;1.20;;;23.10;48.20;;;;;;4887059;29;20471;-59
2022/07/11 08:51:01;;;;;;;1.20;1.10;;;23.10;47.30;;;;;;4885970;29;20435;-56
2022/07/11 08:53:31;;;;;;;1.23;1.13;;;23.10;47.30;;;;;;4888862;29;21004;-59
2022/07/11 08:55:58;;;;;;;1.27;1.17;;;23.20;47.50;;;;;;4881221;29;20475;-58
2022/07/11 08:58:23;;;;;;;1.20;1.10;;;23.10;47.30;;;;;;4890527;29;20449;-57
2022/07/11 09:00:49;;;;;;;1.40;1.30;;;23.10;47.30;;;;;;4883357;29;20452;-58
2022/07/11 09:03:17;;;;;;;1.40;1.30;;;23.10;47.40;;;;;;4885104;29;20267;-68
2022/07/11 09:05:44;;;;;;;1.40;1.30;;;23.10;47.30;;;;;;4887486;29;20446;-60
2022/07/11 09:08:09;;;;;;;1.27;1.17;;;23.10;47.30;;;;;;4884960;29;20443;-59
2022/07/11 09:10:39;;;;;;;1.23;1.13;;;23.10;47.30;;;;;;4887182;29;20441;-57
2022/07/11 09:13:10;;;;;;;1.30;1.20;;;23.10;47.30;;;;;;4877803;29;20211;-56
2022/07/11 09:15:42;;;;;;;1.30;1.20;;;23.10;47.30;;;;;;4885415;29;20478;-59
2022/07/11 09:18:30;;;;;;;1.27;1.17;;;23.10;47.40;;;;;;4883419;29;20486;-57
2022/07/11 09:26:37;;;;;;;1.30;1.20;;;23.10;47.40;;;;;;4889254;29;20447;-58
2022/07/11 09:29:16;;;;;;;0.87;0.87;;;23.10;47.30;;;;;;4884853;29;20507;-57
2022/07/11 09:31:44;;;;;;;1.50;1.40;;;23.10;47.40;;;;;;4884955;29;20431;-60
2022/07/11 09:34:15;;;;;;;1.30;1.20;;;23.10;47.30;;;;;;4889234;29;20442;-60
2022/07/11 09:36:43;;;;;;;1.20;1.10;;;23.10;47.30;;;;;;4890561;29;20475;-58
2022/07/11 09:39:12;;;;;;;1.37;1.27;;;23.10;47.40;;;;;;4891395;29;20505;-63
2022/07/11 09:41:38;;;;;;;1.20;1.10;;;23.10;47.40;;;;;;4884933;29;20439;-57
2022/07/11 09:44:20;;;;;;;1.47;1.37;;;23.10;47.40;;;;;;4885784;29;20440;-57
2022/07/11 09:46:49;;;;;;;1.30;1.20;;;23.10;47.40;;;;;;4887421;29;20447;-57
2022/07/11 09:49:17;;;;;;;1.20;1.10;;;23.10;47.30;;;;;;4887949;29;20489;-62
2022/07/11 09:51:43;;;;;;;1.30;1.20;;;23.10;47.40;;;;;;4885876;29;20514;-61
2022/07/11 09:54:10;;;;;;;1.30;1.20;;;23.10;47.30;;;;;;4882492;29;20430;-60
2022/07/11 09:56:44;;;;;;;1.20;1.10;;;23.10;47.30;;;;;;4883440;29;20609;-56
2022/07/11 09:59:12;;;;;;;1.20;1.10;;;23.10;47.40;;;;;;4883886;29;20458;-58
2022/07/11 10:01:39;;;;;;;1.30;1.20;;;23.10;47.40;;;;;;4885442;29;20509;-57
2022/07/11 10:04:07;;;;;;;1.00;1.00;;;23.10;47.40;;;;;;4886944;29;20439;-57
2022/07/11 10:06:33;;;;;;;1.20;1.10;;;23.10;47.40;;;;;;4883100;29;20562;-61
2022/07/11 10:08:59;;;;;;;1.30;1.20;;;23.10;47.30;;;;;;4885119;29;20498;-56
2022/07/11 10:11:25;;;;;;;1.30;1.20;;;23.10;47.30;;;;;;4880898;29;20935;-59
2022/07/11 10:13:51;;;;;;;1.20;1.10;;;23.10;47.40;;;;;;4881405;29;20207;-61
2022/07/11 10:16:41;;;;;;;1.13;1.03;;;23.10;47.40;;;;;;4885184;29;20213;-58
2022/07/11 10:19:40;;;;;;;1.20;1.10;;;23.10;47.40;;;;;;4883872;29;20435;-57
2022/07/11 10:22:31;;;;;;;1.10;1.10;;;23.10;47.40;;;;;;4888602;29;20439;-59
2022/07/11 10:25:03;;;;;;;1.20;1.10;;;23.10;47.40;;;;;;4884483;29;20459;-57
2022/07/11 10:27:39;;;;;;;1.40;1.30;;;23.10;47.40;;;;;;4886044;29;20948;-59
2022/07/11 10:30:05;;;;;;;1.20;1.10;;;23.10;47.40;;;;;;4882870;29;20495;-59
2022/07/11 10:32:31;;;;;;;0.80;0.80;;;23.10;47.40;;;;;;4884815;29;20447;-60
2022/07/11 10:35:13;;;;;;;1.10;1.00;;;23.10;47.40;;;;;;4885910;29;20438;-58
2022/07/11 10:37:58;;;;;;;1.20;1.10;;;23.10;47.30;;;;;;4889358;29;20666;-59
2022/07/11 10:40:44;;;;;;;1.10;1.10;;;23.10;47.40;;;;;;4886301;29;20590;-58
2022/07/11 10:43:12;;;;;;;1.10;1.00;;;23.10;47.40;;;;;;4885364;29;20540;-57
2022/07/11 10:46:03;;;;;;;0.90;0.90;;;23.10;47.40;;;;;;4889078;29;21062;-68
2022/07/11 10:48:53;;;;;;;1.07;1.00;;;23.10;47.40;;;;;;4889740;29;20471;-67
2022/07/11 10:51:42;;;;;;;0.80;0.80;;;23.10;47.50;;;;;;4890618;29;20435;-61
2022/07/11 10:54:23;;;;;;;1.10;1.00;;;23.10;47.30;;;;;;4890635;29;20472;-59
2022/07/11 10:57:26;;;;;;;1.20;1.10;;;23.10;47.40;;;;;;4889925;29;20467;-60
2022/07/11 11:00:03;;;;;;;1.20;1.17;;;23.10;47.30;;;;;;4887396;29;20454;-57
2022/07/11 11:02:31;;;;;;;1.00;1.00;;;23.10;47.30;;;;;;4889874;29;20434;-58
2022/07/11 11:04:58;;;;;;;1.10;1.00;;;23.10;47.50;;;;;;4887204;29;20554;-58
2022/07/11 11:07:35;;;;;;;1.27;1.17;;;23.10;47.40;;;;;;4887576;29;20558;-57
2022/07/11 11:10:23;;;;;;;1.10;1.00;;;23.10;47.40;;;;;;4891384;29;20618;-57
2022/07/11 11:13:05;;;;;;;0.90;0.90;;;23.10;47.40;;;;;;4877736;29;20522;-57
2022/07/11 11:15:56;;;;;;;1.10;1.00;;;23.10;47.40;;;;;;4886774;29;21258;-61
2022/07/11 11:18:22;;;;;;;1.03;0.97;;;23.10;47.40;;;;;;4884678;29;20489;-57
2022/07/11 11:21:09;;;;;;;1.20;1.10;;;23.10;47.40;;;;;;4885195;29;20435;-59
2022/07/11 11:23:44;;;;;;;0.87;0.87;;;23.10;47.40;;;;;;4886568;29;20525;-65
2022/07/11 11:26:11;;;;;;;1.03;1.00;;;23.10;47.40;;;;;;4892965;29;20448;-60
2022/07/11 11:28:53;;;;;;;1.20;1.10;;;23.10;47.40;;;;;;4883671;29;20438;-57
2022/07/11 11:31:20;;;;;;;1.00;1.00;;;23.10;47.40;;;;;;4889807;29;20837;-57
2022/07/11 11:33:49;;;;;;;0.97;0.97;;;23.10;47.50;;;;;;4885073;29;20463;-58
2022/07/11 11:36:20;;;;;;;0.93;0.93;;;23.10;47.40;;;;;;4883592;29;20475;-57
2022/07/11 11:38:48;;;;;;;0.97;0.97;;;23.10;47.40;;;;;;4887016;29;20449;-59
2022/07/11 11:41:24;;;;;;;1.20;1.10;;;23.10;47.50;;;;;;4887076;29;20506;-60
2022/07/11 11:43:53;;;;;;;1.10;1.00;;;23.10;47.40;;;;;;4890435;29;20426;-56
2022/07/11 11:46:24;;;;;;;1.10;1.00;;;23.10;47.40;;;;;;4886532;29;20526;-57
2022/07/11 11:48:55;;;;;;;0.80;0.80;;;23.10;47.40;;;;;;4888151;29;20474;-57
2022/07/11 11:51:21;;;;;;;0.90;0.90;;;23.10;47.40;;;;;;4886185;29;20507;-58
2022/07/11 11:53:53;;;;;;;1.00;0.90;;;23.10;47.40;;;;;;4885155;29;20442;-64
2022/07/11 11:56:29;;;;;;;0.90;0.90;;;23.10;47.40;;;;;;4886003;29;20474;-58
2022/07/11 11:59:03;;;;;;;1.10;1.00;;;23.10;47.40;;;;;;4887642;29;20438;-62
2022/07/11 12:01:32;;;;;;;1.00;0.90;;;23.10;47.40;;;;;;4886564;29;20430;-58
2022/07/11 12:04:01;;;;;;;1.00;1.00;;;23.10;47.40;;;;;;4888562;29;20735;-58
2022/07/11 12:06:32;;;;;;;0.90;0.90;;;23.10;47.50;;;;;;4884880;29;20448;-56
2022/07/11 12:09:13;;;;;;;0.90;0.90;;;23.10;47.40;;;;;;4891082;29;21608;-58
2022/07/11 12:11:40;;;;;;;0.80;0.80;;;23.10;47.50;;;;;;4889255;29;20517;-56
2022/07/11 12:14:08;;;;;;;0.90;0.90;;;23.10;47.50;;;;;;4886863;29;20439;-59
2022/07/11 12:16:39;;;;;;;1.20;1.10;;;23.10;47.40;;;;;;4886028;29;21410;-66
2022/07/11 12:19:07;;;;;;;0.90;0.90;;;23.10;47.40;;;;;;4888819;29;20459;-57
2022/07/11 12:21:34;;;;;;;1.10;1.00;;;23.10;47.40;;;;;;4888867;29;20442;-57
2022/07/11 12:24:01;;;;;;;5.13;0.90;;;23.10;47.40;;;;;;4886374;29;20455;-58
2022/07/11 12:26:29;;;;;;;0.97;0.90;;;23.10;47.40;;;;;;4886423;29;20439;-58
2022/07/11 12:29:08;;;;;;;0.87;0.87;;;23.10;47.40;;;;;;4885363;29;20431;-69
2022/07/11 12:32:01;;;;;;;0.80;0.80;;;23.10;47.40;;;;;;4885508;29;20949;-56
2022/07/11 12:34:32;;;;;;;0.87;0.87;;;23.10;47.40;;;;;;4888833;29;20937;-58
2022/07/11 12:37:07;;;;;;;1.07;1.00;;;23.10;47.50;;;;;;4886366;29;20970;-57
2022/07/11 12:39:35;;;;;;;0.90;0.90;;;23.10;48.20;;;;;;4888892;29;20434;-57
2022/07/11 12:42:19;;;;;;;0.80;0.80;;;23.10;47.60;;;;;;4885252;29;20477;-60
2022/07/11 12:45:13;;;;;;;0.80;0.80;;;23.10;47.50;;;;;;4885378;29;20513;-63
2022/07/11 12:47:44;;;;;;;1.10;1.00;;;23.10;47.50;;;;;;4887970;29;20499;-58
2022/07/11 12:50:20;;;;;;;0.93;0.93;;;23.10;47.50;;;;;;4886572;29;20465;-58
2022/07/11 12:52:49;;;;;;;0.90;0.90;;;23.10;47.40;;;;;;4888167;29;20494;-57
2022/07/11 12:55:23;;;;;;;0.80;0.80;;;23.10;47.50;;;;;;4884099;29;20443;-59
2022/07/11 12:58:08;;;;;;;0.80;0.80;;;23.10;47.50;;;;;;4884462;29;20439;-58
2022/07/11 13:00:36;;;;;;;0.90;0.90;;;23.10;47.40;;;;;;4886207;29;20455;-57
2022/07/11 13:03:04;;;;;;;0.93;0.90;;;23.10;47.50;;;;;;4884623;29;20452;-63